sensor_id;sensor_type;location;lat;lon;timestamp;P1;durP1;ratioP1;P2;durP2;ratioP2
1682;SDS011;13252;53.596;10.060;2022-11-20T00:00:53;6.33;;;4.03;;
1682;SDS011;13252;53.596;10.060;2022-11-20T00:03:21;5.80;;;4.73;;
1682;SDS011;13252;53.596;10.060;2022-11-20T00:05:49;6.97;;;4.97;;
1682;SDS011;13252;53.596;10.060;2022-11-20T00:08:17;5.80;;;3.80;;
1682;SDS011;13252;53.596;10.060;2022-11-20T00:10:45;7.30;;;4.90;;
1682;SDS011;13252;53.596;10.060;2022-11-20T00:13:13;6.57;;;4.10;;
1682;SDS011;13252;53.596;10.060;2022-11-20T00:15:42;4.47;;;3.87;;
1682;SDS011;13252;53.596;10.060;2022-11-20T00:18:11;5.00;;;3.57;;
1682;SDS011;13252;53.596;10.060;2022-11-20T00:20:38;5.10;;;3.70;;
1682;SDS011;13252;53.596;10.060;2022-11-20T00:23:08;10.50;;;4.20;;
1682;SDS011;13252;53.596;10.060;2022-11-20T00:25:36;5.93;;;3.80;;
1682;SDS011;13252;53.596;10.060;2022-11-20T00:28:03;7.47;;;3.97;;
1682;SDS011;13252;53.596;10.060;2022-11-20T00:30:31;5.63;;;3.87;;
1682;SDS011;13252;53.596;10.060;2022-11-20T00:32:58;6.43;;;3.60;;
1682;SDS011;13252;53.596;10.060;2022-11-20T00:35:28;4.70;;;3.53;;
1682;SDS011;13252;53.596;10.060;2022-11-20T00:37:55;4.97;;;3.60;;
1682;SDS011;13252;53.596;10.060;2022-11-20T00:40:23;7.03;;;4.27;;
1682;SDS011;13252;53.596;10.060;2022-11-20T00:42:50;10.50;;;5.60;;
1682;SDS011;13252;53.596;10.060;2022-11-20T00:45:18;5.63;;;4.67;;
1682;SDS011;13252;53.596;10.060;2022-11-20T00:47:46;6.30;;;3.70;;
1682;SDS011;13252;53.596;10.060;2022-11-20T00:50:14;5.40;;;3.47;;
1682;SDS011;13252;53.596;10.060;2022-11-20T00:52:43;10.07;;;3.77;;
1682;SDS011;13252;53.596;10.060;2022-11-20T00:55:11;7.17;;;3.57;;
1682;SDS011;13252;53.596;10.060;2022-11-20T00:57:39;7.30;;;4.23;;
1682;SDS011;13252;53.596;10.060;2022-11-20T01:00:07;4.87;;;3.73;;
1682;SDS011;13252;53.596;10.060;2022-11-20T01:02:35;6.13;;;3.70;;
1682;SDS011;13252;53.596;10.060;2022-11-20T01:05:03;5.77;;;3.70;;
1682;SDS011;13252;53.596;10.060;2022-11-20T01:07:31;5.03;;;4.10;;
1682;SDS011;13252;53.596;10.060;2022-11-20T01:10:00;7.30;;;4.07;;
1682;SDS011;13252;53.596;10.060;2022-11-20T01:12:28;6.33;;;3.40;;
1682;SDS011;13252;53.596;10.060;2022-11-20T01:14:56;6.40;;;4.27;;
1682;SDS011;13252;53.596;10.060;2022-11-20T01:17:30;6.03;;;4.70;;
1682;SDS011;13252;53.596;10.060;2022-11-20T01:20:04;8.80;;;4.10;;
1682;SDS011;13252;53.596;10.060;2022-11-20T01:23:48;5.87;;;3.73;;
1682;SDS011;13252;53.596;10.060;2022-11-20T01:26:56;5.53;;;3.93;;
1682;SDS011;13252;53.596;10.060;2022-11-20T01:29:29;5.73;;;3.60;;
1682;SDS011;13252;53.596;10.060;2022-11-20T01:32:13;12.27;;;3.57;;
1682;SDS011;13252;53.596;10.060;2022-11-20T01:34:49;5.13;;;3.37;;
1682;SDS011;13252;53.596;10.060;2022-11-20T01:37:25;7.53;;;4.30;;
1682;SDS011;13252;53.596;10.060;2022-11-20T01:40:53;7.30;;;4.20;;
1682;SDS011;13252;53.596;10.060;2022-11-20T01:44:17;12.60;;;4.30;;
1682;SDS011;13252;53.596;10.060;2022-11-20T01:46:49;10.43;;;4.37;;
1682;SDS011;13252;53.596;10.060;2022-11-20T01:49:23;5.77;;;4.13;;
1682;SDS011;13252;53.596;10.060;2022-11-20T01:54:39;6.10;;;4.30;;
1682;SDS011;13252;53.596;10.060;2022-11-20T01:57:09;6.43;;;4.50;;
1682;SDS011;13252;53.596;10.060;2022-11-20T01:59:41;11.80;;;5.13;;
1682;SDS011;13252;53.596;10.060;2022-11-20T02:02:11;5.33;;;3.90;;
1682;SDS011;13252;53.596;10.060;2022-11-20T02:04:39;5.70;;;4.27;;
1682;SDS011;13252;53.596;10.060;2022-11-20T02:07:07;7.37;;;4.83;;
1682;SDS011;13252;53.596;10.060;2022-11-20T02:09:35;9.40;;;4.97;;
1682;SDS011;13252;53.596;10.060;2022-11-20T02:12:03;7.73;;;4.70;;
1682;SDS011;13252;53.596;10.060;2022-11-20T02:14:31;6.57;;;4.90;;
1682;SDS011;13252;53.596;10.060;2022-11-20T02:16:59;5.50;;;3.90;;
1682;SDS011;13252;53.596;10.060;2022-11-20T02:19:27;6.70;;;4.03;;
1682;SDS011;13252;53.596;10.060;2022-11-20T02:21:59;8.67;;;4.57;;
1682;SDS011;13252;53.596;10.060;2022-11-20T02:24:30;5.23;;;4.10;;
1682;SDS011;13252;53.596;10.060;2022-11-20T02:26:59;5.57;;;3.90;;
1682;SDS011;13252;53.596;10.060;2022-11-20T02:29:28;6.00;;;3.77;;
1682;SDS011;13252;53.596;10.060;2022-11-20T02:31:59;6.10;;;5.13;;
1682;SDS011;13252;53.596;10.060;2022-11-20T02:34:27;5.70;;;3.47;;
1682;SDS011;13252;53.596;10.060;2022-11-20T02:36:55;7.27;;;5.13;;
1682;SDS011;13252;53.596;10.060;2022-11-20T02:39:25;5.97;;;4.57;;
1682;SDS011;13252;53.596;10.060;2022-11-20T02:41:55;5.80;;;4.23;;
1682;SDS011;13252;53.596;10.060;2022-11-20T02:44:23;5.53;;;4.27;;
1682;SDS011;13252;53.596;10.060;2022-11-20T02:46:51;6.23;;;4.30;;
1682;SDS011;13252;53.596;10.060;2022-11-20T02:49:18;6.37;;;4.40;;
1682;SDS011;13252;53.596;10.060;2022-11-20T02:51:47;7.63;;;4.40;;
1682;SDS011;13252;53.596;10.060;2022-11-20T02:54:14;5.53;;;4.27;;
1682;SDS011;13252;53.596;10.060;2022-11-20T02:56:42;8.83;;;4.70;;
1682;SDS011;13252;53.596;10.060;2022-11-20T02:59:11;6.83;;;3.90;;
1682;SDS011;13252;53.596;10.060;2022-11-20T03:01:38;7.20;;;4.37;;
1682;SDS011;13252;53.596;10.060;2022-11-20T03:04:06;7.83;;;4.07;;
1682;SDS011;13252;53.596;10.060;2022-11-20T03:06:33;6.70;;;4.33;;
1682;SDS011;13252;53.596;10.060;2022-11-20T03:09:01;7.27;;;5.20;;
1682;SDS011;13252;53.596;10.060;2022-11-20T03:11:29;7.13;;;5.40;;
1682;SDS011;13252;53.596;10.060;2022-11-20T03:13:56;9.50;;;5.70;;
1682;SDS011;13252;53.596;10.060;2022-11-20T03:16:25;5.73;;;5.00;;
1682;SDS011;13252;53.596;10.060;2022-11-20T03:18:53;7.27;;;4.40;;
1682;SDS011;13252;53.596;10.060;2022-11-20T03:21:20;8.53;;;5.17;;
1682;SDS011;13252;53.596;10.060;2022-11-20T03:23:48;6.60;;;4.90;;
1682;SDS011;13252;53.596;10.060;2022-11-20T03:26:16;6.30;;;4.50;;
1682;SDS011;13252;53.596;10.060;2022-11-20T03:28:46;6.87;;;4.63;;
1682;SDS011;13252;53.596;10.060;2022-11-20T03:31:15;9.80;;;5.27;;
1682;SDS011;13252;53.596;10.060;2022-11-20T03:33:45;6.40;;;4.30;;
1682;SDS011;13252;53.596;10.060;2022-11-20T03:36:14;6.63;;;4.07;;
1682;SDS011;13252;53.596;10.060;2022-11-20T03:38:42;7.60;;;4.50;;
1682;SDS011;13252;53.596;10.060;2022-11-20T03:41:10;8.07;;;4.93;;
1682;SDS011;13252;53.596;10.060;2022-11-20T03:43:39;5.60;;;4.30;;
1682;SDS011;13252;53.596;10.060;2022-11-20T03:46:07;8.60;;;4.10;;
1682;SDS011;13252;53.596;10.060;2022-11-20T03:48:34;5.60;;;4.47;;
1682;SDS011;13252;53.596;10.060;2022-11-20T03:51:10;8.17;;;4.83;;
1682;SDS011;13252;53.596;10.060;2022-11-20T03:53:39;5.33;;;4.33;;
1682;SDS011;13252;53.596;10.060;2022-11-20T03:56:07;10.00;;;4.90;;
1682;SDS011;13252;53.596;10.060;2022-11-20T03:58:36;7.97;;;4.67;;
1682;SDS011;13252;53.596;10.060;2022-11-20T04:01:06;7.70;;;4.70;;
1682;SDS011;13252;53.596;10.060;2022-11-20T04:03:34;6.90;;;3.70;;
1682;SDS011;13252;53.596;10.060;2022-11-20T04:06:03;9.53;;;4.10;;
1682;SDS011;13252;53.596;10.060;2022-11-20T04:08:32;5.47;;;4.00;;
1682;SDS011;13252;53.596;10.060;2022-11-20T04:11:10;5.00;;;3.90;;
1682;SDS011;13252;53.596;10.060;2022-11-20T04:13:38;5.97;;;4.03;;
1682;SDS011;13252;53.596;10.060;2022-11-20T04:16:06;6.17;;;3.90;;
1682;SDS011;13252;53.596;10.060;2022-11-20T04:18:35;6.70;;;4.27;;
1682;SDS011;13252;53.596;10.060;2022-11-20T04:21:03;6.10;;;4.00;;
1682;SDS011;13252;53.596;10.060;2022-11-20T04:23:33;4.53;;;3.40;;
1682;SDS011;13252;53.596;10.060;2022-11-20T04:26:01;4.83;;;4.03;;
1682;SDS011;13252;53.596;10.060;2022-11-20T04:28:29;8.33;;;4.57;;
1682;SDS011;13252;53.596;10.060;2022-11-20T04:31:03;6.30;;;4.53;;
1682;SDS011;13252;53.596;10.060;2022-11-20T04:33:32;5.63;;;4.30;;
1682;SDS011;13252;53.596;10.060;2022-11-20T04:36:00;7.10;;;5.13;;
1682;SDS011;13252;53.596;10.060;2022-11-20T04:38:29;7.80;;;4.87;;
1682;SDS011;13252;53.596;10.060;2022-11-20T04:40:59;4.00;;;3.30;;
1682;SDS011;13252;53.596;10.060;2022-11-20T04:43:27;12.50;;;4.80;;
1682;SDS011;13252;53.596;10.060;2022-11-20T04:45:55;6.27;;;3.93;;
1682;SDS011;13252;53.596;10.060;2022-11-20T04:48:23;4.67;;;3.80;;
1682;SDS011;13252;53.596;10.060;2022-11-20T04:50:52;6.27;;;4.53;;
1682;SDS011;13252;53.596;10.060;2022-11-20T04:53:21;7.30;;;4.30;;
1682;SDS011;13252;53.596;10.060;2022-11-20T04:55:49;6.50;;;4.00;;
1682;SDS011;13252;53.596;10.060;2022-11-20T04:58:18;7.60;;;3.80;;
1682;SDS011;13252;53.596;10.060;2022-11-20T05:00:45;6.03;;;4.90;;
1682;SDS011;13252;53.596;10.060;2022-11-20T05:03:13;5.50;;;4.60;;
1682;SDS011;13252;53.596;10.060;2022-11-20T05:05:40;7.93;;;4.30;;
1682;SDS011;13252;53.596;10.060;2022-11-20T05:08:08;8.13;;;4.87;;
1682;SDS011;13252;53.596;10.060;2022-11-20T05:10:35;8.03;;;4.83;;
1682;SDS011;13252;53.596;10.060;2022-11-20T05:13:03;8.40;;;4.63;;
1682;SDS011;13252;53.596;10.060;2022-11-20T05:15:32;4.90;;;4.03;;
1682;SDS011;13252;53.596;10.060;2022-11-20T05:17:59;6.77;;;4.27;;
1682;SDS011;13252;53.596;10.060;2022-11-20T05:20:27;8.00;;;4.63;;
1682;SDS011;13252;53.596;10.060;2022-11-20T05:22:56;6.43;;;4.70;;
1682;SDS011;13252;53.596;10.060;2022-11-20T05:25:23;9.13;;;4.53;;
1682;SDS011;13252;53.596;10.060;2022-11-20T05:27:51;10.43;;;4.50;;
1682;SDS011;13252;53.596;10.060;2022-11-20T05:30:19;6.50;;;5.53;;
1682;SDS011;13252;53.596;10.060;2022-11-20T05:32:48;7.93;;;5.20;;
1682;SDS011;13252;53.596;10.060;2022-11-20T05:35:15;6.70;;;5.30;;
1682;SDS011;13252;53.596;10.060;2022-11-20T05:37:43;7.13;;;5.20;;
1682;SDS011;13252;53.596;10.060;2022-11-20T05:40:11;5.30;;;4.57;;
1682;SDS011;13252;53.596;10.060;2022-11-20T05:42:39;7.87;;;5.17;;
1682;SDS011;13252;53.596;10.060;2022-11-20T05:45:07;6.77;;;6.03;;
1682;SDS011;13252;53.596;10.060;2022-11-20T05:47:35;14.60;;;4.70;;
1682;SDS011;13252;53.596;10.060;2022-11-20T05:50:04;7.17;;;4.83;;
1682;SDS011;13252;53.596;10.060;2022-11-20T05:52:32;7.60;;;4.40;;
1682;SDS011;13252;53.596;10.060;2022-11-20T05:55:00;8.00;;;5.17;;
1682;SDS011;13252;53.596;10.060;2022-11-20T05:57:27;8.30;;;5.87;;
1682;SDS011;13252;53.596;10.060;2022-11-20T05:59:55;8.73;;;5.40;;
1682;SDS011;13252;53.596;10.060;2022-11-20T06:02:22;6.63;;;4.60;;
1682;SDS011;13252;53.596;10.060;2022-11-20T06:04:50;11.80;;;5.27;;
1682;SDS011;13252;53.596;10.060;2022-11-20T06:07:19;6.30;;;5.30;;
1682;SDS011;13252;53.596;10.060;2022-11-20T06:09:46;9.77;;;5.30;;
1682;SDS011;13252;53.596;10.060;2022-11-20T06:12:14;8.10;;;5.80;;
1682;SDS011;13252;53.596;10.060;2022-11-20T06:14:41;7.10;;;5.00;;
1682;SDS011;13252;53.596;10.060;2022-11-20T06:17:09;9.67;;;5.90;;
1682;SDS011;13252;53.596;10.060;2022-11-20T06:19:36;7.60;;;5.90;;
1682;SDS011;13252;53.596;10.060;2022-11-20T06:22:04;9.30;;;5.70;;
1682;SDS011;13252;53.596;10.060;2022-11-20T06:24:33;7.23;;;5.03;;
1682;SDS011;13252;53.596;10.060;2022-11-20T06:27:00;9.97;;;6.17;;
1682;SDS011;13252;53.596;10.060;2022-11-20T06:29:28;9.03;;;6.73;;
1682;SDS011;13252;53.596;10.060;2022-11-20T06:31:59;8.50;;;7.33;;
1682;SDS011;13252;53.596;10.060;2022-11-20T06:34:27;10.20;;;8.00;;
1682;SDS011;13252;53.596;10.060;2022-11-20T06:36:54;11.10;;;7.63;;
1682;SDS011;13252;53.596;10.060;2022-11-20T06:39:22;16.57;;;7.83;;
1682;SDS011;13252;53.596;10.060;2022-11-20T06:41:51;8.83;;;7.93;;
1682;SDS011;13252;53.596;10.060;2022-11-20T06:44:24;14.57;;;8.70;;
1682;SDS011;13252;53.596;10.060;2022-11-20T06:46:51;14.43;;;9.70;;
1682;SDS011;13252;53.596;10.060;2022-11-20T06:49:19;12.40;;;9.70;;
1682;SDS011;13252;53.596;10.060;2022-11-20T06:51:47;11.00;;;9.23;;
1682;SDS011;13252;53.596;10.060;2022-11-20T06:54:14;12.20;;;10.07;;
1682;SDS011;13252;53.596;10.060;2022-11-20T06:56:42;11.47;;;8.87;;
1682;SDS011;13252;53.596;10.060;2022-11-20T06:59:11;13.70;;;8.87;;
1682;SDS011;13252;53.596;10.060;2022-11-20T07:01:38;10.77;;;9.37;;
1682;SDS011;13252;53.596;10.060;2022-11-20T07:04:06;11.70;;;9.40;;
1682;SDS011;13252;53.596;10.060;2022-11-20T07:06:33;9.20;;;8.30;;
1682;SDS011;13252;53.596;10.060;2022-11-20T07:09:01;10.10;;;8.43;;
1682;SDS011;13252;53.596;10.060;2022-11-20T07:11:32;11.03;;;8.80;;
1682;SDS011;13252;53.596;10.060;2022-11-20T07:14:00;12.30;;;8.23;;
1682;SDS011;13252;53.596;10.060;2022-11-20T07:16:28;14.30;;;7.50;;
1682;SDS011;13252;53.596;10.060;2022-11-20T07:18:56;8.80;;;7.00;;
1682;SDS011;13252;53.596;10.060;2022-11-20T07:21:23;11.47;;;7.50;;
1682;SDS011;13252;53.596;10.060;2022-11-20T07:23:51;9.70;;;7.40;;
1682;SDS011;13252;53.596;10.060;2022-11-20T07:26:18;8.80;;;7.33;;
1682;SDS011;13252;53.596;10.060;2022-11-20T07:28:46;7.77;;;6.73;;
1682;SDS011;13252;53.596;10.060;2022-11-20T07:31:14;9.70;;;8.20;;
1682;SDS011;13252;53.596;10.060;2022-11-20T07:33:46;12.73;;;7.70;;
1682;SDS011;13252;53.596;10.060;2022-11-20T07:36:14;9.93;;;7.57;;
1682;SDS011;13252;53.596;10.060;2022-11-20T07:38:42;10.47;;;7.53;;
1682;SDS011;13252;53.596;10.060;2022-11-20T07:41:09;11.10;;;6.50;;
1682;SDS011;13252;53.596;10.060;2022-11-20T07:43:37;8.83;;;6.17;;
1682;SDS011;13252;53.596;10.060;2022-11-20T07:46:07;12.77;;;6.67;;
1682;SDS011;13252;53.596;10.060;2022-11-20T07:48:34;7.13;;;6.03;;
1682;SDS011;13252;53.596;10.060;2022-11-20T07:51:03;9.17;;;5.70;;
1682;SDS011;13252;53.596;10.060;2022-11-20T07:53:30;7.10;;;6.23;;
1682;SDS011;13252;53.596;10.060;2022-11-20T07:55:59;7.57;;;5.60;;
1682;SDS011;13252;53.596;10.060;2022-11-20T07:58:27;7.17;;;5.43;;
1682;SDS011;13252;53.596;10.060;2022-11-20T08:00:56;8.43;;;5.80;;
1682;SDS011;13252;53.596;10.060;2022-11-20T08:03:23;8.07;;;6.70;;
1682;SDS011;13252;53.596;10.060;2022-11-20T08:05:51;9.37;;;6.40;;
1682;SDS011;13252;53.596;10.060;2022-11-20T08:08:21;8.70;;;6.07;;
1682;SDS011;13252;53.596;10.060;2022-11-20T08:10:49;7.77;;;6.60;;
1682;SDS011;13252;53.596;10.060;2022-11-20T08:13:16;9.17;;;5.63;;
1682;SDS011;13252;53.596;10.060;2022-11-20T08:16:02;6.37;;;5.57;;
1682;SDS011;13252;53.596;10.060;2022-11-20T08:18:30;7.53;;;5.33;;
1682;SDS011;13252;53.596;10.060;2022-11-20T08:21:01;7.20;;;5.20;;
1682;SDS011;13252;53.596;10.060;2022-11-20T08:23:31;8.43;;;5.43;;
1682;SDS011;13252;53.596;10.060;2022-11-20T08:26:01;7.43;;;5.40;;
1682;SDS011;13252;53.596;10.060;2022-11-20T08:28:29;6.63;;;5.77;;
1682;SDS011;13252;53.596;10.060;2022-11-20T08:30:58;6.93;;;5.03;;
1682;SDS011;13252;53.596;10.060;2022-11-20T08:33:27;6.80;;;4.93;;
1682;SDS011;13252;53.596;10.060;2022-11-20T08:35:58;12.20;;;4.60;;
1682;SDS011;13252;53.596;10.060;2022-11-20T08:38:26;6.47;;;5.23;;
1682;SDS011;13252;53.596;10.060;2022-11-20T08:40:57;5.87;;;5.27;;
1682;SDS011;13252;53.596;10.060;2022-11-20T08:43:42;4.73;;;4.10;;
1682;SDS011;13252;53.596;10.060;2022-11-20T08:46:10;5.27;;;4.20;;
1682;SDS011;13252;53.596;10.060;2022-11-20T08:48:37;7.30;;;5.47;;
1682;SDS011;13252;53.596;10.060;2022-11-20T08:51:05;6.17;;;5.00;;
1682;SDS011;13252;53.596;10.060;2022-11-20T08:53:33;6.20;;;4.57;;
1682;SDS011;13252;53.596;10.060;2022-11-20T08:56:02;5.63;;;4.50;;
1682;SDS011;13252;53.596;10.060;2022-11-20T08:58:29;10.80;;;6.07;;
1682;SDS011;13252;53.596;10.060;2022-11-20T09:01:17;6.73;;;4.37;;
1682;SDS011;13252;53.596;10.060;2022-11-20T09:03:46;7.30;;;4.93;;
1682;SDS011;13252;53.596;10.060;2022-11-20T09:06:14;7.20;;;4.07;;
1682;SDS011;13252;53.596;10.060;2022-11-20T09:08:42;7.30;;;4.60;;
1682;SDS011;13252;53.596;10.060;2022-11-20T09:11:11;6.13;;;4.60;;
1682;SDS011;13252;53.596;10.060;2022-11-20T09:13:39;7.53;;;6.47;;
1682;SDS011;13252;53.596;10.060;2022-11-20T09:16:07;7.93;;;6.23;;
1682;SDS011;13252;53.596;10.060;2022-11-20T09:18:36;6.80;;;5.53;;
1682;SDS011;13252;53.596;10.060;2022-11-20T09:21:05;7.13;;;4.90;;
1682;SDS011;13252;53.596;10.060;2022-11-20T09:23:36;5.90;;;4.63;;
1682;SDS011;13252;53.596;10.060;2022-11-20T09:26:05;6.63;;;4.90;;
1682;SDS011;13252;53.596;10.060;2022-11-20T09:28:36;9.37;;;4.87;;
1682;SDS011;13252;53.596;10.060;2022-11-20T09:31:04;5.63;;;4.93;;
1682;SDS011;13252;53.596;10.060;2022-11-20T09:33:32;10.20;;;4.87;;
1682;SDS011;13252;53.596;10.060;2022-11-20T09:36:00;6.53;;;5.13;;
1682;SDS011;13252;53.596;10.060;2022-11-20T09:38:27;7.47;;;5.77;;
1682;SDS011;13252;53.596;10.060;2022-11-20T09:40:56;6.37;;;5.00;;
1682;SDS011;13252;53.596;10.060;2022-11-20T09:43:28;6.77;;;5.40;;
1682;SDS011;13252;53.596;10.060;2022-11-20T09:46:04;6.17;;;4.83;;
1682;SDS011;13252;53.596;10.060;2022-11-20T09:48:40;7.00;;;5.87;;
1682;SDS011;13252;53.596;10.060;2022-11-20T09:51:15;7.43;;;5.70;;
1682;SDS011;13252;53.596;10.060;2022-11-20T09:53:52;10.77;;;6.30;;
1682;SDS011;13252;53.596;10.060;2022-11-20T09:56:27;7.23;;;5.80;;
1682;SDS011;13252;53.596;10.060;2022-11-20T09:58:57;5.27;;;4.77;;
1682;SDS011;13252;53.596;10.060;2022-11-20T10:01:29;5.27;;;4.37;;
1682;SDS011;13252;53.596;10.060;2022-11-20T10:04:00;9.63;;;5.03;;
1682;SDS011;13252;53.596;10.060;2022-11-20T10:06:30;7.83;;;5.93;;
1682;SDS011;13252;53.596;10.060;2022-11-20T10:09:08;5.47;;;4.40;;
1682;SDS011;13252;53.596;10.060;2022-11-20T10:11:46;7.50;;;5.17;;
1682;SDS011;13252;53.596;10.060;2022-11-20T10:14:20;6.47;;;5.00;;
1682;SDS011;13252;53.596;10.060;2022-11-20T10:16:58;6.10;;;4.93;;
1682;SDS011;13252;53.596;10.060;2022-11-20T10:19:43;5.30;;;4.63;;
1682;SDS011;13252;53.596;10.060;2022-11-20T10:22:19;6.87;;;5.63;;
1682;SDS011;13252;53.596;10.060;2022-11-20T10:24:55;7.30;;;5.00;;
1682;SDS011;13252;53.596;10.060;2022-11-20T10:27:39;7.53;;;5.20;;
1682;SDS011;13252;53.596;10.060;2022-11-20T10:30:34;6.50;;;5.60;;
1682;SDS011;13252;53.596;10.060;2022-11-20T10:33:06;6.90;;;5.17;;
1682;SDS011;13252;53.596;10.060;2022-11-20T10:35:41;5.60;;;4.30;;
1682;SDS011;13252;53.596;10.060;2022-11-20T10:38:12;5.10;;;4.60;;
1682;SDS011;13252;53.596;10.060;2022-11-20T10:40:44;5.00;;;4.00;;
1682;SDS011;13252;53.596;10.060;2022-11-20T10:43:13;8.40;;;5.60;;
1682;SDS011;13252;53.596;10.060;2022-11-20T10:45:45;5.73;;;5.00;;
1682;SDS011;13252;53.596;10.060;2022-11-20T10:48:19;6.27;;;4.60;;
1682;SDS011;13252;53.596;10.060;2022-11-20T10:50:57;6.47;;;5.10;;
1682;SDS011;13252;53.596;10.060;2022-11-20T10:53:40;6.97;;;4.87;;
1682;SDS011;13252;53.596;10.060;2022-11-20T10:56:15;5.57;;;4.93;;
1682;SDS011;13252;53.596;10.060;2022-11-20T10:58:48;6.50;;;4.40;;
1682;SDS011;13252;53.596;10.060;2022-11-20T11:01:22;4.87;;;3.97;;
1682;SDS011;13252;53.596;10.060;2022-11-20T11:03:51;8.63;;;4.57;;
1682;SDS011;13252;53.596;10.060;2022-11-20T11:06:21;4.97;;;4.27;;
1682;SDS011;13252;53.596;10.060;2022-11-20T11:08:53;9.57;;;3.70;;
1682;SDS011;13252;53.596;10.060;2022-11-20T11:11:21;5.10;;;3.90;;
1682;SDS011;13252;53.596;10.060;2022-11-20T11:13:50;4.90;;;4.40;;
1682;SDS011;13252;53.596;10.060;2022-11-20T11:16:22;3.90;;;3.10;;
1682;SDS011;13252;53.596;10.060;2022-11-20T11:19:02;4.27;;;3.87;;
1682;SDS011;13252;53.596;10.060;2022-11-20T11:21:31;4.90;;;4.20;;
1682;SDS011;13252;53.596;10.060;2022-11-20T11:23:59;4.93;;;4.40;;
1682;SDS011;13252;53.596;10.060;2022-11-20T11:26:52;7.90;;;4.60;;
1682;SDS011;13252;53.596;10.060;2022-11-20T11:29:20;5.90;;;4.60;;
1682;SDS011;13252;53.596;10.060;2022-11-20T11:31:48;3.97;;;3.27;;
1682;SDS011;13252;53.596;10.060;2022-11-20T11:34:18;5.73;;;3.00;;
1682;SDS011;13252;53.596;10.060;2022-11-20T11:36:49;4.90;;;3.90;;
1682;SDS011;13252;53.596;10.060;2022-11-20T11:39:20;4.60;;;3.63;;
1682;SDS011;13252;53.596;10.060;2022-11-20T11:41:48;3.80;;;3.13;;
1682;SDS011;13252;53.596;10.060;2022-11-20T11:44:18;4.40;;;3.53;;
1682;SDS011;13252;53.596;10.060;2022-11-20T11:47:05;3.90;;;3.50;;
1682;SDS011;13252;53.596;10.060;2022-11-20T11:49:38;3.87;;;2.80;;
1682;SDS011;13252;53.596;10.060;2022-11-20T11:52:10;4.50;;;3.40;;
1682;SDS011;13252;53.596;10.060;2022-11-20T11:54:41;3.77;;;3.37;;
1682;SDS011;13252;53.596;10.060;2022-11-20T11:57:12;3.67;;;2.80;;
1682;SDS011;13252;53.596;10.060;2022-11-20T11:59:45;4.60;;;3.47;;
1682;SDS011;13252;53.596;10.060;2022-11-20T12:02:27;4.10;;;3.70;;
1682;SDS011;13252;53.596;10.060;2022-11-20T12:05:03;3.90;;;3.27;;
1682;SDS011;13252;53.596;10.060;2022-11-20T12:07:38;4.50;;;3.87;;
1682;SDS011;13252;53.596;10.060;2022-11-20T12:10:15;3.80;;;3.30;;
1682;SDS011;13252;53.596;10.060;2022-11-20T12:12:48;4.13;;;3.20;;
1682;SDS011;13252;53.596;10.060;2022-11-20T12:15:22;3.47;;;2.87;;
1682;SDS011;13252;53.596;10.060;2022-11-20T12:17:54;3.40;;;2.57;;
1682;SDS011;13252;53.596;10.060;2022-11-20T12:20:24;4.03;;;3.10;;
1682;SDS011;13252;53.596;10.060;2022-11-20T12:22:55;3.53;;;3.23;;
1682;SDS011;13252;53.596;10.060;2022-11-20T12:25:25;4.20;;;3.30;;
1682;SDS011;13252;53.596;10.060;2022-11-20T12:27:58;5.03;;;3.03;;
1682;SDS011;13252;53.596;10.060;2022-11-20T12:30:37;3.73;;;2.30;;
1682;SDS011;13252;53.596;10.060;2022-11-20T12:33:18;4.20;;;3.13;;
1682;SDS011;13252;53.596;10.060;2022-11-20T12:36:05;3.20;;;2.30;;
1682;SDS011;13252;53.596;10.060;2022-11-20T12:38:53;3.80;;;3.10;;
1682;SDS011;13252;53.596;10.060;2022-11-20T12:41:30;4.30;;;3.20;;
1682;SDS011;13252;53.596;10.060;2022-11-20T12:44:32;4.87;;;3.10;;
1682;SDS011;13252;53.596;10.060;2022-11-20T12:47:27;3.10;;;2.43;;
1682;SDS011;13252;53.596;10.060;2022-11-20T12:50:00;2.70;;;2.40;;
1682;SDS011;13252;53.596;10.060;2022-11-20T12:52:38;3.50;;;2.70;;
1682;SDS011;13252;53.596;10.060;2022-11-20T12:55:12;5.20;;;3.33;;
1682;SDS011;13252;53.596;10.060;2022-11-20T12:57:45;4.70;;;3.30;;
1682;SDS011;13252;53.596;10.060;2022-11-20T13:00:16;3.67;;;2.63;;
1682;SDS011;13252;53.596;10.060;2022-11-20T13:05:53;3.13;;;2.50;;
1682;SDS011;13252;53.596;10.060;2022-11-20T13:08:27;3.93;;;3.50;;
1682;SDS011;13252;53.596;10.060;2022-11-20T13:10:57;3.97;;;3.10;;
1682;SDS011;13252;53.596;10.060;2022-11-20T13:13:29;3.57;;;3.10;;
1682;SDS011;13252;53.596;10.060;2022-11-20T13:16:02;3.50;;;3.10;;
1682;SDS011;13252;53.596;10.060;2022-11-20T13:18:34;7.27;;;3.37;;
1682;SDS011;13252;53.596;10.060;2022-11-20T13:21:13;4.00;;;3.60;;
1682;SDS011;13252;53.596;10.060;2022-11-20T13:23:46;3.20;;;2.90;;
1682;SDS011;13252;53.596;10.060;2022-11-20T13:26:18;4.40;;;3.23;;
1682;SDS011;13252;53.596;10.060;2022-11-20T13:28:48;4.33;;;3.60;;
1682;SDS011;13252;53.596;10.060;2022-11-20T13:31:39;4.60;;;3.17;;
1682;SDS011;13252;53.596;10.060;2022-11-20T13:34:11;4.60;;;3.07;;
1682;SDS011;13252;53.596;10.060;2022-11-20T13:36:48;3.90;;;2.90;;
1682;SDS011;13252;53.596;10.060;2022-11-20T13:39:25;3.60;;;2.80;;
1682;SDS011;13252;53.596;10.060;2022-11-20T13:41:54;4.13;;;3.20;;
1682;SDS011;13252;53.596;10.060;2022-11-20T13:44:23;5.50;;;3.07;;
1682;SDS011;13252;53.596;10.060;2022-11-20T13:46:53;3.40;;;2.80;;
1682;SDS011;13252;53.596;10.060;2022-11-20T13:49:25;6.50;;;3.47;;
1682;SDS011;13252;53.596;10.060;2022-11-20T13:51:56;3.40;;;2.53;;
1682;SDS011;13252;53.596;10.060;2022-11-20T13:54:39;4.63;;;3.43;;
1682;SDS011;13252;53.596;10.060;2022-11-20T13:57:27;4.17;;;3.20;;
1682;SDS011;13252;53.596;10.060;2022-11-20T14:00:12;4.93;;;2.60;;
1682;SDS011;13252;53.596;10.060;2022-11-20T14:02:43;2.80;;;2.40;;
1682;SDS011;13252;53.596;10.060;2022-11-20T14:05:15;3.10;;;2.40;;
1682;SDS011;13252;53.596;10.060;2022-11-20T14:07:46;4.60;;;3.20;;
1682;SDS011;13252;53.596;10.060;2022-11-20T14:10:23;3.40;;;2.83;;
1682;SDS011;13252;53.596;10.060;2022-11-20T14:12:57;3.60;;;2.70;;
1682;SDS011;13252;53.596;10.060;2022-11-20T14:15:26;3.70;;;3.20;;
1682;SDS011;13252;53.596;10.060;2022-11-20T14:17:55;5.30;;;3.60;;
1682;SDS011;13252;53.596;10.060;2022-11-20T14:20:23;3.53;;;3.13;;
1682;SDS011;13252;53.596;10.060;2022-11-20T14:22:52;4.10;;;3.30;;
1682;SDS011;13252;53.596;10.060;2022-11-20T14:25:23;4.23;;;3.07;;
1682;SDS011;13252;53.596;10.060;2022-11-20T14:27:53;4.17;;;3.50;;
1682;SDS011;13252;53.596;10.060;2022-11-20T14:30:23;4.13;;;3.33;;
1682;SDS011;13252;53.596;10.060;2022-11-20T14:32:53;6.20;;;4.50;;
1682;SDS011;13252;53.596;10.060;2022-11-20T14:35:24;3.47;;;2.90;;
1682;SDS011;13252;53.596;10.060;2022-11-20T14:37:53;7.80;;;3.53;;
1682;SDS011;13252;53.596;10.060;2022-11-20T14:40:24;8.00;;;3.87;;
1682;SDS011;13252;53.596;10.060;2022-11-20T14:42:54;3.60;;;2.40;;
1682;SDS011;13252;53.596;10.060;2022-11-20T14:45:22;4.10;;;3.23;;
1682;SDS011;13252;53.596;10.060;2022-11-20T14:47:51;3.80;;;2.33;;
1682;SDS011;13252;53.596;10.060;2022-11-20T14:50:19;3.23;;;2.50;;
1682;SDS011;13252;53.596;10.060;2022-11-20T14:52:52;5.20;;;2.60;;
1682;SDS011;13252;53.596;10.060;2022-11-20T14:55:30;3.50;;;2.47;;
1682;SDS011;13252;53.596;10.060;2022-11-20T14:57:59;4.00;;;2.93;;
1682;SDS011;13252;53.596;10.060;2022-11-20T15:00:28;5.07;;;3.40;;
1682;SDS011;13252;53.596;10.060;2022-11-20T15:02:56;5.10;;;3.30;;
1682;SDS011;13252;53.596;10.060;2022-11-20T15:05:25;4.00;;;2.67;;
1682;SDS011;13252;53.596;10.060;2022-11-20T15:08:04;4.23;;;3.10;;
1682;SDS011;13252;53.596;10.060;2022-11-20T15:10:34;4.93;;;2.40;;
1682;SDS011;13252;53.596;10.060;2022-11-20T15:13:03;5.70;;;3.50;;
1682;SDS011;13252;53.596;10.060;2022-11-20T15:15:39;5.23;;;4.20;;